Time;durP1;ratioP1;P1;durP2;ratioP2;P2;SDS_P1;SDS_P2;PMS_P1;PMS_P2;Temp;Humidity;BMP_temperature;BMP_pressure;BME280_temperature;BME280_humidity;BME280_pressure;Samples;Min_cycle;Max_cycle;Signal;HPM_P1;HPM_P2
2023/05/08 00:00:23;;;;;;;1999.90;999.90;;;12.90;99.90;;;;;;5070678;28;20029;-75
2023/05/08 00:02:49;;;;;;;1999.90;999.90;;;13.10;99.90;;;;;;5069291;28;20683;-75
2023/05/08 00:05:14;;;;;;;1999.90;999.90;;;13.10;99.90;;;;;;5070961;28;20045;-75
2023/05/08 00:07:40;;;;;;;1999.90;999.90;;;13.30;99.90;;;;;;5072305;28;20025;-75
2023/05/08 00:10:07;;;;;;;1999.90;999.90;;;13.10;99.90;;;;;;5068031;28;20030;-75
2023/05/08 00:12:33;;;;;;;1999.90;999.90;;;13.00;99.90;;;;;;5067488;28;20036;-75
2023/05/08 00:14:59;;;;;;;1999.90;999.90;;;13.20;99.90;;;;;;5076966;28;20070;-74
2023/05/08 00:17:25;;;;;;;1999.90;999.90;;;13.20;99.90;;;;;;5071350;28;20767;-75
2023/05/08 00:19:51;;;;;;;1999.90;999.90;;;13.20;99.90;;;;;;5050120;28;20037;-75
2023/05/08 00:22:18;;;;;;;1999.90;999.90;;;13.30;99.90;;;;;;5051310;28;20016;-75
2023/05/08 00:24:44;;;;;;;1999.90;999.90;;;13.10;99.90;;;;;;5052904;28;20035;-75
2023/05/08 00:27:09;;;;;;;1999.90;999.90;;;13.00;99.90;;;;;;5068358;28;20121;-75
2023/05/08 00:29:35;;;;;;;1999.90;999.90;;;13.20;99.90;;;;;;5067628;28;20712;-75
2023/05/08 00:32:01;;;;;;;1999.90;999.90;;;13.30;99.90;;;;;;5051871;28;20478;-75
2023/05/08 00:34:27;;;;;;;1999.90;999.90;;;13.30;99.90;;;;;;5055557;28;20036;-75
2023/05/08 00:36:55;;;;;;;1999.90;999.90;;;13.30;99.90;;;;;;5072442;28;20036;-75
2023/05/08 00:39:20;;;;;;;1999.90;999.90;;;13.20;99.90;;;;;;5070968;28;20028;-75
2023/05/08 00:41:46;;;;;;;1999.90;999.90;;;13.20;99.90;;;;;;5071308;28;20047;-75
2023/05/08 00:44:12;;;;;;;1999.90;999.90;;;13.20;99.90;;;;;;5070134;28;20039;-75
2023/05/08 00:46:37;;;;;;;1999.90;999.90;;;13.20;99.90;;;;;;5050138;28;20052;-75
2023/05/08 00:49:05;;;;;;;1999.90;999.90;;;13.00;99.90;;;;;;5072902;28;20024;-75
2023/05/08 00:51:32;;;;;;;1999.90;999.90;;;13.10;99.90;;;;;;5051912;28;20028;-75
2023/05/08 00:53:58;;;;;;;1999.90;999.90;;;13.00;99.90;;;;;;5074116;28;20031;-75
2023/05/08 00:56:25;;;;;;;1999.90;999.90;;;12.90;99.90;;;;;;5064863;28;20033;-75
2023/05/08 00:58:51;;;;;;;1999.90;999.90;;;13.00;99.90;;;;;;5052659;28;20095;-75
2023/05/08 01:01:17;;;;;;;1999.90;999.90;;;13.00;99.90;;;;;;5067868;28;20511;-75
2023/05/08 01:03:43;;;;;;;1999.90;999.90;;;13.00;99.90;;;;;;5039755;28;20045;-75
2023/05/08 01:06:09;;;;;;;1999.90;999.90;;;13.10;99.90;;;;;;5070388;28;20125;-75
2023/05/08 01:08:35;;;;;;;1999.90;999.90;;;13.30;99.90;;;;;;5073490;28;20064;-75
2023/05/08 01:11:10;;;;;;;1999.90;999.90;;;13.20;99.90;;;;;;5074187;28;20036;-75
2023/05/08 01:13:48;;;;;;;1999.90;999.90;;;13.40;99.90;;;;;;5066453;28;20506;-75
2023/05/08 01:16:18;;;;;;;1999.90;999.90;;;13.40;99.90;;;;;;5049208;28;20082;-75
2023/05/08 01:19:01;;;;;;;1999.90;999.90;;;13.30;99.90;;;;;;5046897;28;20390;-75
2023/05/08 01:21:39;;;;;;;1999.90;999.90;;;13.20;99.90;;;;;;5070918;28;20066;-75
2023/05/08 01:24:31;;;;;;;1999.90;999.90;;;13.20;99.90;;;;;;5066131;28;20394;-76
2023/05/08 01:27:34;;;;;;;1999.90;999.90;;;13.20;99.90;;;;;;5031409;28;20497;-75
2023/05/08 01:30:29;;;;;;;1999.90;999.90;;;13.30;99.90;;;;;;5071658;28;20028;-75
2023/05/08 01:32:58;;;;;;;1999.90;999.90;;;13.20;99.90;;;;;;5048383;28;20048;-75
2023/05/08 01:35:46;;;;;;;1999.90;999.90;;;13.20;99.90;;;;;;5055111;28;20048;-75
2023/05/08 01:38:25;;;;;;;1999.90;999.90;;;13.30;99.90;;;;;;5063989;28;20492;-75
2023/05/08 01:41:10;;;;;;;1999.90;999.90;;;13.30;99.90;;;;;;5051907;28;20067;-75
2023/05/08 01:43:36;;;;;;;1999.90;999.90;;;13.30;99.90;;;;;;5050697;28;20487;-76
2023/05/08 01:46:07;;;;;;;1999.90;999.90;;;13.40;99.90;;;;;;5066468;28;20028;-76
2023/05/08 01:48:58;;;;;;;1999.90;999.90;;;13.40;99.90;;;;;;5073678;28;20032;-75
2023/05/08 01:51:24;;;;;;;;;;;13.30;99.90;;;;;;5063309;28;20081;-75
2023/05/08 01:54:03;;;;;;;1999.90;999.90;;;13.30;99.90;;;;;;5071708;28;19955;-75
2023/05/08 01:56:50;;;;;;;1999.90;999.90;;;13.30;99.90;;;;;;5068423;28;20035;-76
2023/05/08 01:59:20;;;;;;;1999.90;999.90;;;13.40;99.90;;;;;;5053214;28;20119;-76
2023/05/08 02:01:48;;;;;;;1999.90;999.90;;;13.50;99.90;;;;;;5071230;28;20037;-75
2023/05/08 02:04:16;;;;;;;1999.90;999.90;;;13.20;99.90;;;;;;5073482;28;20064;-76
2023/05/08 02:06:42;;;;;;;1999.90;999.90;;;13.20;99.90;;;;;;5067918;28;20024;-74
2023/05/08 02:09:09;;;;;;;1999.90;999.90;;;13.10;99.90;;;;;;5053799;28;20032;-75
2023/05/08 02:11:37;;;;;;;1999.90;999.90;;;13.10;99.90;;;;;;5055408;28;20016;-75
2023/05/08 02:14:04;;;;;;;1999.90;999.90;;;13.10;99.90;;;;;;5056907;28;20024;-75
2023/05/08 02:16:31;;;;;;;1999.90;999.90;;;13.00;99.90;;;;;;5056564;28;20107;-75
2023/05/08 02:19:00;;;;;;;1999.90;999.90;;;13.10;99.90;;;;;;5040945;28;20037;-75
2023/05/08 02:21:27;;;;;;;1999.90;999.90;;;13.00;99.90;;;;;;5072822;28;20035;-75
2023/05/08 02:23:55;;;;;;;1999.90;999.90;;;13.00;99.90;;;;;;5066056;28;20033;-74
2023/05/08 02:26:22;;;;;;;1999.90;999.90;;;13.00;99.90;;;;;;5055509;28;20052;-75
2023/05/08 02:28:50;;;;;;;1999.90;999.90;;;13.00;99.90;;;;;;5052001;28;20067;-75
2023/05/08 02:31:17;;;;;;;1999.90;999.90;;;13.00;99.90;;;;;;5072249;28;20020;-74
2023/05/08 02:33:44;;;;;;;1999.90;999.90;;;12.90;99.90;;;;;;5074796;28;20152;-74
2023/05/08 02:36:14;;;;;;;1999.90;999.90;;;13.00;99.90;;;;;;5073227;28;20097;-75
2023/05/08 02:38:43;;;;;;;1999.90;999.90;;;12.90;99.90;;;;;;5074041;28;20071;-75
2023/05/08 02:41:11;;;;;;;1999.90;999.90;;;12.90;99.90;;;;;;5054793;28;20043;-75
2023/05/08 02:43:37;;;;;;;1999.90;999.90;;;13.00;99.90;;;;;;5072115;28;20069;-75
2023/05/08 02:46:26;;;;;;;1999.90;999.90;;;12.90;99.90;;;;;;5068980;28;20438;-74
2023/05/08 02:49:02;;;;;;;1999.90;999.90;;;12.90;99.90;;;;;;5074637;28;20032;-74
2023/05/08 02:51:49;;;;;;;1999.90;999.90;;;12.90;99.90;;;;;;5062144;28;20024;-75
2023/05/08 02:55:07;;;;;;;1999.90;999.90;;;12.90;99.90;;;;;;5078419;28;20453;-74
2023/05/08 02:57:42;;;;;;;1999.90;999.90;;;12.80;99.90;;;;;;5057226;28;20044;-75
2023/05/08 03:00:31;;;;;;;1999.90;999.90;;;12.70;99.90;;;;;;5066532;28;20032;-75
2023/05/08 03:03:10;;;;;;;1999.90;999.90;;;12.70;99.90;;;;;;5076343;28;20072;-75
2023/05/08 03:05:38;;;;;;;1999.90;999.90;;;12.70;99.90;;;;;;5061116;28;20047;-75
2023/05/08 03:08:07;;;;;;;1999.90;999.90;;;12.70;99.90;;;;;;5076373;28;20489;-75
2023/05/08 03:10:35;;;;;;;1999.90;999.90;;;12.60;99.90;;;;;;5055525;28;20377;-75
2023/05/08 03:13:07;;;;;;;1999.90;999.90;;;12.60;99.90;;;;;;5058835;28;20047;-75
2023/05/08 03:15:45;;;;;;;1999.90;999.90;;;12.60;99.90;;;;;;5050923;28;20485;-75
2023/05/08 03:18:15;;;;;;;1999.90;999.90;;;12.60;99.90;;;;;;5053942;28;20040;-75
2023/05/08 03:20:45;;;;;;;1999.90;999.90;;;12.50;99.90;;;;;;5053019;28;20048;-75
2023/05/08 03:23:14;;;;;;;1999.90;999.90;;;12.50;99.90;;;;;;5076613;28;20079;-75
2023/05/08 03:25:42;;;;;;;1999.90;999.90;;;12.40;99.90;;;;;;5056914;28;20290;-75
2023/05/08 03:28:09;;;;;;;1999.90;999.90;;;12.50;99.90;;;;;;5072087;28;20032;-77
2023/05/08 03:30:36;;;;;;;1999.90;999.90;;;12.50;99.90;;;;;;5061075;28;20044;-75
2023/05/08 03:33:06;;;;;;;1999.90;999.90;;;12.50;99.90;;;;;;5055859;28;20039;-75
2023/05/08 03:35:37;;;;;;;1999.90;999.90;;;12.50;99.90;;;;;;5054724;28;20037;-75
2023/05/08 03:38:03;;;;;;;1999.90;999.90;;;12.40;99.90;;;;;;5064968;28;20029;-75
2023/05/08 03:40:49;;;;;;;1999.90;999.90;;;12.40;99.90;;;;;;5067114;28;20112;-74
2023/05/08 03:43:16;;;;;;;1999.90;999.90;;;12.40;99.90;;;;;;5073038;28;20032;-75
2023/05/08 03:45:43;;;;;;;1999.90;999.90;;;12.40;99.90;;;;;;5060555;28;20498;-75
2023/05/08 03:48:10;;;;;;;1999.90;999.90;;;12.50;99.90;;;;;;5064736;28;20043;-75
2023/05/08 03:50:36;;;;;;;1999.90;999.90;;;12.40;99.90;;;;;;5073679;28;20025;-74
2023/05/08 03:53:03;;;;;;;1999.90;999.90;;;12.40;99.90;;;;;;5059754;28;20065;-75
2023/05/08 03:55:30;;;;;;;1999.90;999.90;;;12.40;99.90;;;;;;5065561;28;20178;-75
2023/05/08 03:57:59;;;;;;;1999.90;999.90;;;12.40;99.90;;;;;;5076939;28;20530;-75
2023/05/08 04:01:01;;;;;;;1999.90;999.90;;;12.40;99.90;;;;;;5075264;28;20604;-75
2023/05/08 04:03:48;;;;;;;1999.90;999.90;;;12.40;99.90;;;;;;5057639;28;20457;-75
2023/05/08 04:06:32;;;;;;;1999.90;999.90;;;12.30;99.90;;;;;;5077049;28;20103;-75
2023/05/08 04:09:06;;;;;;;1999.90;999.90;;;12.30;99.90;;;;;;5074574;28;20556;-74
2023/05/08 04:11:40;;;;;;;1999.90;999.90;;;12.40;99.90;;;;;;5061057;28;20154;-75
2023/05/08 04:14:11;;;;;;;1999.90;999.90;;;12.40;99.90;;;;;;5066573;28;20025;-74
2023/05/08 04:16:41;;;;;;;1999.90;999.90;;;12.50;99.90;;;;;;5076213;28;20029;-75
2023/05/08 04:19:12;;;;;;;1999.90;999.90;;;12.50;99.90;;;;;;5062927;28;20178;-75
2023/05/08 04:21:42;;;;;;;1999.90;999.90;;;12.40;99.90;;;;;;5074662;28;20274;-75
2023/05/08 04:24:11;;;;;;;1999.90;999.90;;;12.50;99.90;;;;;;5071961;28;20170;-75
2023/05/08 04:26:37;;;;;;;1999.90;999.90;;;12.50;99.90;;;;;;5064417;28;20079;-75
2023/05/08 04:29:05;;;;;;;1999.90;999.90;;;12.50;99.90;;;;;;5055441;28;20029;-75
2023/05/08 04:31:33;;;;;;;1999.90;999.90;;;12.50;99.90;;;;;;5061008;28;20213;-75
2023/05/08 04:33:59;;;;;;;1999.90;999.90;;;12.40;99.90;;;;;;5041135;28;20115;-75
2023/05/08 04:36:28;;;;;;;1999.90;999.90;;;12.40;99.90;;;;;;5074056;28;20139;-75
2023/05/08 04:38:53;;;;;;;1999.90;999.90;;;12.40;99.90;;;;;;5059082;28;20048;-75
2023/05/08 04:41:20;;;;;;;1999.90;999.90;;;12.60;99.90;;;;;;5059377;28;20032;-75
2023/05/08 04:43:47;;;;;;;1999.90;999.90;;;12.50;99.90;;;;;;5071262;28;20502;-75
2023/05/08 04:46:16;;;;;;;1999.90;999.90;;;12.50;99.90;;;;;;5071055;28;20024;-79
2023/05/08 04:48:42;;;;;;;1999.90;999.90;;;12.60;99.90;;;;;;5039423;28;20036;-78
2023/05/08 04:51:08;;;;;;;1999.90;999.90;;;12.60;99.90;;;;;;5063851;28;20036;-77
2023/05/08 04:53:33;;;;;;;1999.90;999.90;;;12.60;99.90;;;;;;5056621;28;20028;-77
2023/05/08 04:55:59;;;;;;;1999.90;999.90;;;12.60;99.90;;;;;;5071584;28;20047;-77
2023/05/08 04:58:25;;;;;;;1999.90;999.90;;;12.60;99.90;;;;;;5055529;28;20052;-77
2023/05/08 05:00:51;;;;;;;1999.90;999.90;;;12.60;99.90;;;;;;5078417;28;20115;-77
2023/05/08 05:03:16;;;;;;;1999.90;999.90;;;12.60;99.90;;;;;;5058012;28;20041;-77
2023/05/08 05:05:42;;;;;;;1999.90;999.90;;;12.70;99.90;;;;;;5045740;28;20409;-77
2023/05/08 05:08:08;;;;;;;1999.90;999.90;;;12.60;99.90;;;;;;5061926;28;20028;-77
2023/05/08 05:10:33;;;;;;;1999.90;999.90;;;12.60;99.90;;;;;;5045807;28;20436;-76
2023/05/08 05:12:59;;;;;;;1999.90;999.90;;;12.80;99.90;;;;;;5071945;28;20044;-76
2023/05/08 05:15:25;;;;;;;1999.90;999.90;;;12.90;99.90;;;;;;5060996;28;20656;-76
2023/05/08 05:17:50;;;;;;;1999.90;999.90;;;12.80;99.90;;;;;;5071128;28;20033;-76
2023/05/08 05:20:16;;;;;;;1999.90;999.90;;;12.90;99.90;;;;;;5062405;28;20561;-76
2023/05/08 05:22:42;;;;;;;1999.90;999.90;;;12.90;99.90;;;;;;5057861;28;20029;-76
2023/05/08 05:25:08;;;;;;;1999.90;999.90;;;13.00;99.90;;;;;;5067241;28;20502;-76
2023/05/08 05:27:35;;;;;;;1999.90;999.90;;;12.90;99.90;;;;;;5041518;28;20463;-76
2023/05/08 05:30:01;;;;;;;1999.90;999.90;;;13.10;99.90;;;;;;5057769;28;20029;-78
2023/05/08 05:32:27;;;;;;;1999.90;999.90;;;13.10;99.90;;;;;;5074192;28;20036;-76
2023/05/08 05:34:53;;;;;;;1999.90;999.90;;;13.10;99.90;;;;;;5068919;28;20041;-76
2023/05/08 05:37:19;;;;;;;1999.90;999.90;;;13.10;99.90;;;;;;5076449;28;20020;-76
2023/05/08 05:39:44;;;;;;;1999.90;999.90;;;13.10;99.90;;;;;;5071100;28;20738;-76
2023/05/08 05:42:10;;;;;;;1999.90;999.90;;;13.00;99.90;;;;;;5076845;28;20043;-76
2023/05/08 05:44:36;;;;;;;1999.90;999.90;;;13.10;99.90;;;;;;5069663;28;20102;-76
2023/05/08 05:47:04;;;;;;;1999.90;999.90;;;13.20;99.90;;;;;;5055561;28;20440;-76
2023/05/08 05:49:29;;;;;;;1999.90;999.90;;;13.40;99.90;;;;;;5078373;28;20032;-76
2023/05/08 05:51:55;;;;;;;1999.90;999.90;;;13.20;99.90;;;;;;5069235;28;20025;-76
2023/05/08 05:54:21;;;;;;;1999.90;999.90;;;13.20;99.90;;;;;;5043863;28;20028;-76
2023/05/08 05:56:47;;;;;;;1999.90;999.90;;;13.20;99.90;;;;;;5054616;28;20779;-76
2023/05/08 05:59:13;;;;;;;1999.90;999.90;;;13.10;99.90;;;;;;5070531;28;20036;-79
2023/05/08 06:01:39;;;;;;;1999.90;999.90;;;13.00;99.90;;;;;;5058649;28;20074;-75
2023/05/08 06:04:05;;;;;;;1999.90;999.90;;;13.10;99.90;;;;;;5074476;28;20036;-74
2023/05/08 06:06:30;;;;;;;1999.90;999.90;;;13.20;99.90;;;;;;5058653;28;20115;-74
2023/05/08 06:08:56;;;;;;;1999.90;999.90;;;13.20;99.90;;;;;;5072489;28;20052;-74
2023/05/08 06:11:22;;;;;;;1999.90;999.90;;;13.50;99.90;;;;;;5072819;28;20172;-74
2023/05/08 06:13:48;;;;;;;1999.90;999.90;;;13.40;99.90;;;;;;5053367;28;20853;-74
2023/05/08 06:16:14;;;;;;;1999.90;999.90;;;13.30;99.90;;;;;;5075264;28;20032;-74
2023/05/08 06:18:40;;;;;;;1999.90;999.90;;;13.50;99.90;;;;;;5070118;28;20039;-74
2023/05/08 06:21:06;;;;;;;1999.90;999.90;;;13.60;99.90;;;;;;5045282;28;20032;-75
2023/05/08 06:23:32;;;;;;;1999.90;999.90;;;13.50;99.90;;;;;;5072424;28;20032;-74
2023/05/08 06:25:58;;;;;;;1999.90;999.90;;;13.60;99.90;;;;;;5038100;28;20170;-74
2023/05/08 06:28:24;;;;;;;1999.90;999.90;;;13.90;99.90;;;;;;5068528;28;20056;-74
2023/05/08 06:30:53;;;;;;;1999.90;999.90;;;14.00;99.90;;;;;;5075718;28;20063;-74
2023/05/08 06:33:18;;;;;;;1999.90;999.90;;;13.60;99.90;;;;;;5075092;28;20051;-74
2023/05/08 06:35:47;;;;;;;1999.90;999.90;;;13.60;99.90;;;;;;5056723;28;20036;-75
2023/05/08 06:38:13;;;;;;;1999.90;999.90;;;13.70;99.90;;;;;;5074412;28;20047;-75
2023/05/08 06:40:43;;;;;;;1999.90;999.90;;;13.70;99.90;;;;;;5070984;28;20040;-75
2023/05/08 06:43:09;;;;;;;1999.90;999.90;;;13.70;99.90;;;;;;5054566;28;20043;-78
2023/05/08 06:45:36;;;;;;;1999.90;999.90;;;13.60;99.90;;;;;;5052416;28;20043;-79
2023/05/08 06:48:03;;;;;;;1999.90;999.90;;;13.70;99.90;;;;;;5056369;28;20050;-77
2023/05/08 06:50:30;;;;;;;1999.90;999.90;;;13.70;99.90;;;;;;5077659;28;20036;-77
2023/05/08 06:52:55;;;;;;;1999.90;999.90;;;13.90;99.90;;;;;;5054085;28;20031;-78
2023/05/08 06:55:21;;;;;;;1999.90;999.90;;;14.00;99.90;;;;;;5059155;28;20028;-78
2023/05/08 06:57:47;;;;;;;1999.90;999.90;;;13.90;99.90;;;;;;5054416;28;20448;-78
2023/05/08 07:00:13;;;;;;;1999.90;999.90;;;13.70;99.90;;;;;;5058612;28;20028;-78
2023/05/08 07:02:38;;;;;;;1999.90;999.90;;;13.80;99.90;;;;;;5053645;28;20032;-77
2023/05/08 07:05:05;;;;;;;1999.90;999.90;;;14.00;99.90;;;;;;5066251;28;20032;-77
2023/05/08 07:07:31;;;;;;;1999.90;999.90;;;14.20;99.90;;;;;;5062013;28;20033;-79
2023/05/08 07:09:56;;;;;;;1999.90;999.90;;;14.20;99.90;;;;;;5062722;28;20036;-78
2023/05/08 07:12:22;;;;;;;1999.90;999.90;;;14.10;99.90;;;;;;5058028;28;20392;-78
2023/05/08 07:14:49;;;;;;;1999.90;999.90;;;13.80;99.90;;;;;;5055984;28;20029;-78
2023/05/08 07:17:15;;;;;;;1999.90;999.90;;;14.00;99.90;;;;;;5060762;28;20032;-78
2023/05/08 07:19:40;;;;;;;1999.90;999.90;;;13.80;99.90;;;;;;5060530;28;20028;-77
2023/05/08 07:22:06;;;;;;;1999.90;999.90;;;13.70;99.90;;;;;;5061671;28;20055;-78
2023/05/08 07:24:32;;;;;;;1999.90;999.90;;;13.60;99.90;;;;;;5078972;28;20398;-77
2023/05/08 07:26:58;;;;;;;1999.90;999.90;;;13.70;99.90;;;;;;5058748;28;20501;-77
2023/05/08 07:29:25;;;;;;;1999.90;999.90;;;13.70;99.90;;;;;;5070810;28;20025;-78
2023/05/08 07:31:51;;;;;;;1999.90;999.90;;;13.80;99.90;;;;;;5060391;28;20024;-77
2023/05/08 07:34:19;;;;;;;1999.90;999.90;;;13.80;99.90;;;;;;5074874;28;20045;-77
2023/05/08 07:36:45;;;;;;;1999.90;999.90;;;13.80;99.90;;;;;;5075844;28;20036;-78
2023/05/08 07:39:12;;;;;;;1999.90;999.90;;;13.80;99.90;;;;;;5064249;28;20037;-78
2023/05/08 07:41:39;;;;;;;1999.90;999.90;;;13.80;99.90;;;;;;5071306;28;20123;-78
2023/05/08 07:44:05;;;;;;;1999.90;999.90;;;13.80;99.90;;;;;;5059800;28;20548;-78
2023/05/08 07:46:30;;;;;;;1999.90;999.90;;;13.70;99.90;;;;;;5077089;28;20033;-79
2023/05/08 07:48:56;;;;;;;1999.90;999.90;;;14.00;99.90;;;;;;5077942;28;20420;-78
2023/05/08 07:51:22;;;;;;;1999.90;999.90;;;14.00;99.90;;;;;;5057216;28;20461;-78
2023/05/08 07:53:49;;;;;;;1999.90;999.90;;;14.00;99.90;;;;;;5042711;28;20028;-78
2023/05/08 07:56:15;;;;;;;1999.90;999.90;;;14.10;99.90;;;;;;5073136;28;20055;-78
2023/05/08 07:58:44;;;;;;;1999.90;999.90;;;14.00;99.90;;;;;;5072857;28;20473;-78
2023/05/08 08:01:10;;;;;;;1999.90;999.90;;;14.00;99.90;;;;;;5059030;28;20565;-78
2023/05/08 08:03:36;;;;;;;1999.90;999.90;;;13.60;99.90;;;;;;5060876;28;20036;-78
2023/05/08 08:06:02;;;;;;;1999.90;999.90;;;13.50;99.90;;;;;;5074212;28;20029;-78
2023/05/08 08:08:27;;;;;;;1999.90;999.90;;;13.60;99.90;;;;;;5062695;28;20029;-79
2023/05/08 08:10:53;;;;;;;1999.90;999.90;;;13.80;99.90;;;;;;5044390;28;20075;-79
2023/05/08 08:13:19;;;;;;;1999.90;999.90;;;13.80;99.90;;;;;;5061552;28;20505;-78
2023/05/08 08:15:44;;;;;;;1999.90;999.90;;;14.10;99.90;;;;;;5062541;28;20039;-78
2023/05/08 08:18:10;;;;;;;1999.90;999.90;;;14.30;99.90;;;;;;5044466;28;20058;-78
2023/05/08 08:20:36;;;;;;;1999.90;999.90;;;14.20;99.90;;;;;;5060677;28;20100;-78
2023/05/08 08:23:02;;;;;;;1999.90;999.90;;;14.30;99.90;;;;;;5073004;28;20033;-79
2023/05/08 08:25:28;;;;;;;1999.90;999.90;;;14.40;99.90;;;;;;5061783;28;20543;-79
2023/05/08 08:27:53;;;;;;;1999.90;999.90;;;14.50;99.90;;;;;;5064625;28;20032;-79
2023/05/08 08:30:20;;;;;;;1999.90;999.90;;;14.50;99.90;;;;;;5060814;28;20029;-79
2023/05/08 08:32:46;;;;;;;1999.90;999.90;;;15.10;99.90;;;;;;5064073;28;20542;-79
2023/05/08 08:35:12;;;;;;;1999.90;999.90;;;15.00;99.90;;;;;;5063813;28;20194;-79
2023/05/08 08:37:38;;;;;;;1999.90;999.90;;;15.20;99.90;;;;;;5057722;28;20103;-79
2023/05/08 08:40:04;;;;;;;1999.90;999.90;;;15.30;99.90;;;;;;5060335;28;20050;-79
2023/05/08 08:42:30;;;;;;;1999.90;999.90;;;15.60;99.90;;;;;;5068637;28;20042;-78
2023/05/08 08:44:56;;;;;;;1999.90;999.90;;;16.00;99.90;;;;;;5062873;28;20033;-79
2023/05/08 08:47:28;;;;;;;1999.90;999.90;;;15.90;99.90;;;;;;5076249;28;20089;-79
2023/05/08 08:49:54;;;;;;;1999.90;999.90;;;16.20;99.90;;;;;;5077561;28;20123;-79
2023/05/08 08:52:49;;;;;;;1999.90;999.90;;;16.40;99.90;;;;;;5072695;28;20073;-79
2023/05/08 08:55:17;;;;;;;1999.90;999.90;;;16.40;99.90;;;;;;5045196;28;20043;-78
2023/05/08 08:58:42;;;;;;;1999.90;999.90;;;16.50;99.80;;;;;;5080782;28;20114;-79
2023/05/08 09:01:14;;;;;;;1999.90;999.90;;;16.10;99.40;;;;;;4985929;28;20030;-79
2023/05/08 09:03:39;;;;;;;1999.90;999.90;;;15.90;99.90;;;;;;5062781;28;20067;-79
2023/05/08 09:06:06;;;;;;;1999.90;999.90;;;15.80;98.70;;;;;;5057477;28;20451;-79
2023/05/08 09:08:33;;;;;;;1999.90;999.90;;;15.60;98.60;;;;;;5047498;28;20028;-79
2023/05/08 09:11:01;;;;;;;1999.90;999.90;;;15.50;99.90;;;;;;5072509;28;21657;-79
2023/05/08 09:13:28;;;;;;;1999.90;999.90;;;15.70;99.90;;;;;;5060762;28;20108;-79
2023/05/08 09:15:56;;;;;;;1999.90;999.90;;;15.80;99.90;;;;;;5068063;28;20133;-79
2023/05/08 09:18:21;;;;;;;1999.90;999.90;;;16.40;99.00;;;;;;5061686;28;20094;-79
2023/05/08 09:20:48;;;;;;;1999.90;999.90;;;16.90;99.90;;;;;;5053176;28;20454;-79
2023/05/08 09:23:16;;;;;;;1999.90;999.90;;;17.50;96.80;;;;;;5066587;28;20033;-79
2023/05/08 09:25:46;;;;;;;1999.90;999.90;;;17.30;98.70;;;;;;5066992;28;20449;-79
2023/05/08 09:28:19;;;;;;;1999.90;999.90;;;17.80;97.20;;;;;;5066746;28;20483;-79
2023/05/08 09:30:55;;;;;;;1999.90;999.90;;;18.00;97.10;;;;;;5049450;28;20032;-79
2023/05/08 09:33:24;;;;;;;1999.90;999.90;;;18.00;96.60;;;;;;5057571;28;20085;-80
2023/05/08 09:35:49;;;;;;;1999.90;999.90;;;18.20;96.70;;;;;;5073462;28;20390;-79
2023/05/08 09:38:42;;;;;;;1999.90;999.90;;;18.20;91.90;;;;;;5037964;28;20040;-79
2023/05/08 09:41:14;;;;;;;1999.90;999.90;;;17.20;94.70;;;;;;5042172;28;20436;-78
2023/05/08 09:43:41;;;;;;;1999.90;999.90;;;16.60;93.30;;;;;;5060944;28;20077;-79
2023/05/08 09:46:21;;;;;;;1999.90;999.90;;;16.10;96.20;;;;;;5061692;28;20056;-79
2023/05/08 09:48:47;;;;;;;1999.90;999.90;;;16.20;96.70;;;;;;5050210;28;20021;-79
2023/05/08 09:51:12;;;;;;;1999.90;999.90;;;16.20;97.20;;;;;;5057848;28;20145;-79
2023/05/08 09:53:38;;;;;;;1999.90;999.90;;;16.40;97.80;;;;;;5039356;28;20113;-79
2023/05/08 09:56:05;;;;;;;1999.90;999.90;;;16.30;95.90;;;;;;5072747;28;20024;-77
2023/05/08 09:58:40;;;;;;;1999.90;999.90;;;16.40;95.60;;;;;;5073412;28;20107;-78
2023/05/08 10:01:07;;;;;;;1999.90;999.90;;;16.40;94.50;;;;;;5056086;28;20028;-78
2023/05/08 10:03:47;;;;;;;1999.90;999.90;;;16.60;96.40;;;;;;5058704;28;20043;-78
2023/05/08 10:06:13;;;;;;;1999.90;999.90;;;16.90;94.30;;;;;;5068313;28;20028;-77
2023/05/08 10:08:39;;;;;;;1999.90;999.90;;;17.00;95.40;;;;;;5058197;28;20497;-78
2023/05/08 10:11:18;;;;;;;1999.90;999.90;;;17.30;92.00;;;;;;5070606;28;20037;-76
2023/05/08 10:13:45;;;;;;;1999.90;999.90;;;17.30;92.00;;;;;;5066264;28;20051;-70
2023/05/08 10:16:15;;;;;;;1999.90;999.90;;;16.90;90.80;;;;;;5072087;28;20032;-79
2023/05/08 10:18:48;;;;;;;;;;;16.50;89.70;;;;;;5077108;28;20078;-78
2023/05/08 10:21:15;;;;;;;1999.90;999.90;;;16.60;90.50;;;;;;5058109;28;19911;-79
2023/05/08 10:23:45;;;;;;;1999.90;999.90;;;16.70;90.40;;;;;;5066909;28;20020;-78
2023/05/08 10:26:24;;;;;;;1999.90;999.90;;;16.90;91.20;;;;;;5058540;28;20048;-79
2023/05/08 10:28:58;;;;;;;1999.90;999.90;;;17.30;90.10;;;;;;5066268;28;20040;-79
2023/05/08 10:31:37;;;;;;;1999.90;999.90;;;17.10;88.10;;;;;;5068797;28;20229;-78
2023/05/08 10:34:03;;;;;;;1999.90;999.90;;;16.90;88.30;;;;;;5070947;28;20170;-79
2023/05/08 10:36:31;;;;;;;1999.90;999.90;;;16.70;88.30;;;;;;5055010;28;20025;-78
2023/05/08 10:38:57;;;;;;;1999.90;999.90;;;16.80;90.50;;;;;;5060705;28;20037;-78
2023/05/08 10:41:23;;;;;;;1999.90;999.90;;;16.70;91.60;;;;;;5069121;28;20165;-78
2023/05/08 10:43:49;;;;;;;1999.90;999.90;;;16.30;92.70;;;;;;5073389;28;20123;-78
2023/05/08 10:46:40;;;;;;;1999.90;999.90;;;16.40;93.90;;;;;;5041019;28;20033;-78
2023/05/08 10:49:18;;;;;;;;;;;16.50;94.00;;;;;;5069986;28;20025;-78
2023/05/08 10:52:06;;;;;;;1999.90;999.90;;;16.30;93.60;;;;;;5066507;28;19912;-78
2023/05/08 10:54:46;;;;;;;1999.90;999.90;;;16.70;93.30;;;;;;5066514;28;20024;-75
2023/05/08 10:57:12;;;;;;;;;;;16.20;93.50;;;;;;5075141;28;20789;-75
2023/05/08 10:59:38;;;;;;;1999.90;999.90;;;16.70;95.00;;;;;;5056133;28;19995;-75
2023/05/08 11:02:08;;;;;;;1999.90;999.90;;;16.60;94.10;;;;;;5074214;28;20123;-76
2023/05/08 11:04:34;;;;;;;1999.90;999.90;;;16.60;93.70;;;;;;5069436;28;20075;-77
2023/05/08 11:07:00;;;;;;;1999.90;999.90;;;16.90;93.70;;;;;;5077731;28;20025;-75
2023/05/08 11:09:29;;;;;;;1999.90;999.90;;;16.80;94.40;;;;;;5074284;28;20078;-74
2023/05/08 11:12:10;;;;;;;1999.90;999.90;;;16.70;93.60;;;;;;5062508;28;20053;-75
2023/05/08 11:14:40;;;;;;;1999.90;999.90;;;16.80;93.30;;;;;;5063299;28;20152;-75
2023/05/08 11:17:07;;;;;;;;;;;16.60;92.00;;;;;;5060199;28;20032;-74
2023/05/08 11:19:33;;;;;;;1999.90;999.90;;;16.60;94.40;;;;;;5059811;28;20373;-74
2023/05/08 11:22:27;;;;;;;1999.90;999.90;;;16.60;94.90;;;;;;5055137;28;20056;-74
2023/05/08 11:25:07;;;;;;;1999.90;999.90;;;16.70;93.70;;;;;;5067411;28;20052;-74
2023/05/08 11:27:53;;;;;;;1999.90;999.90;;;16.60;94.30;;;;;;5066152;28;20119;-74
2023/05/08 11:30:33;;;;;;;1999.90;999.90;;;16.20;93.10;;;;;;5043236;28;20037;-74
2023/05/08 11:33:02;;;;;;;1999.90;999.90;;;16.10;93.20;;;;;;5070574;28;20021;-74
2023/05/08 11:35:52;;;;;;;1999.90;999.90;;;15.90;93.20;;;;;;5052244;28;20036;-75
2023/05/08 11:38:26;;;;;;;1999.90;999.90;;;16.10;94.20;;;;;;5056439;28;20025;-75
2023/05/08 11:40:57;;;;;;;1999.90;999.90;;;16.10;93.80;;;;;;5060914;28;20033;-74
2023/05/08 11:43:32;;;;;;;1999.90;999.90;;;16.00;93.50;;;;;;5065641;28;20160;-75
2023/05/08 11:46:16;;;;;;;1999.90;999.90;;;16.30;93.20;;;;;;5053098;28;20116;-74
2023/05/08 11:48:42;;;;;;;1999.90;999.90;;;16.50;93.50;;;;;;5068859;28;20107;-74
2023/05/08 11:51:08;;;;;;;1999.90;999.90;;;16.80;92.80;;;;;;5050756;28;20581;-74
2023/05/08 11:53:35;;;;;;;1999.90;999.90;;;16.70;92.30;;;;;;5056948;28;20037;-74
2023/05/08 11:56:02;;;;;;;1999.90;999.90;;;16.60;93.50;;;;;;5074780;28;20081;-74
2023/05/08 11:58:27;;;;;;;1999.90;999.90;;;16.80;92.30;;;;;;5073184;28;20029;-75
2023/05/08 12:00:54;;;;;;;1999.90;999.90;;;16.40;91.60;;;;;;5074827;28;20037;-75
2023/05/08 12:03:21;;;;;;;1999.90;999.90;;;16.30;92.20;;;;;;5050594;28;20028;-75
2023/05/08 12:05:48;;;;;;;1999.90;999.90;;;16.00;93.60;;;;;;5076316;28;20513;-74
2023/05/08 12:08:15;;;;;;;1999.90;999.90;;;16.00;93.60;;;;;;5052904;28;20486;-75
2023/05/08 12:10:52;;;;;;;1999.90;999.90;;;16.00;93.20;;;;;;5070399;28;20446;-74
2023/05/08 12:13:21;;;;;;;1999.90;999.90;;;15.60;93.30;;;;;;5070367;28;20028;-74